sensor_id;sensor_type;location;lat;lon;timestamp;pressure;altitude;pressure_sealevel;temperature;humidity
5988;BME280;3021;51.000;6.980;2023-02-10T00:00:41;66597.25;;;2.70;100.00
5988;BME280;3021;51.000;6.980;2023-02-10T00:03:07;66607.84;;;2.74;100.00
5988;BME280;3021;51.000;6.980;2023-02-10T00:05:32;66589.06;;;2.60;100.00
5988;BME280;3021;51.000;6.980;2023-02-10T00:07:57;66599.22;;;2.67;100.00
5988;BME280;3021;51.000;6.980;2023-02-10T00:10:23;66596.53;;;2.67;100.00
5988;BME280;3021;51.000;6.980;2023-02-10T00:12:48;66593.66;;;2.64;100.00
5988;BME280;3021;51.000;6.980;2023-02-10T00:15:13;66602.09;;;2.69;100.00
5988;BME280;3021;51.000;6.980;2023-02-10T00:17:39;66598.25;;;2.68;100.00
5988;BME280;3021;51.000;6.980;2023-02-10T00:20:04;66596.69;;;2.69;100.00
5988;BME280;3021;51.000;6.980;2023-02-10T00:22:30;66599.81;;;2.67;100.00
5988;BME280;3021;51.000;6.980;2023-02-10T00:24:55;66584.88;;;2.54;100.00
5988;BME280;3021;51.000;6.980;2023-02-10T00:27:20;66586.44;;;2.53;100.00
5988;BME280;3021;51.000;6.980;2023-02-10T00:29:49;66581.59;;;2.53;100.00
5988;BME280;3021;51.000;6.980;2023-02-10T00:32:15;66582.59;;;2.52;100.00
5988;BME280;3021;51.000;6.980;2023-02-10T00:34:42;66580.28;;;2.50;100.00
5988;BME280;3021;51.000;6.980;2023-02-10T00:37:08;66579.16;;;2.49;100.00
5988;BME280;3021;51.000;6.980;2023-02-10T00:39:33;66576.28;;;2.46;100.00
5988;BME280;3021;51.000;6.980;2023-02-10T00:41:58;66580.28;;;2.50;100.00
5988;BME280;3021;51.000;6.980;2023-02-10T00:44:24;66590.03;;;2.58;100.00
5988;BME280;3021;51.000;6.980;2023-02-10T00:46:49;66591.34;;;2.62;100.00
5988;BME280;3021;51.000;6.980;2023-02-10T00:49:14;66592.75;;;2.58;100.00
5988;BME280;3021;51.000;6.980;2023-02-10T00:51:40;66598.50;;;2.64;100.00
5988;BME280;3021;51.000;6.980;2023-02-10T00:54:05;66607.69;;;2.72;100.00
5988;BME280;3021;51.000;6.980;2023-02-10T00:56:30;66601.13;;;2.71;100.00
5988;BME280;3021;51.000;6.980;2023-02-10T00:58:56;66592.91;;;2.61;100.00
5988;BME280;3021;51.000;6.980;2023-02-10T01:01:21;66582.75;;;2.54;100.00
5988;BME280;3021;51.000;6.980;2023-02-10T01:03:46;66585.03;;;2.56;100.00
5988;BME280;3021;51.000;6.980;2023-02-10T01:06:13;66580.28;;;2.50;100.00
5988;BME280;3021;51.000;6.980;2023-02-10T01:08:40;66585.31;;;2.52;100.00
5988;BME280;3021;51.000;6.980;2023-02-10T01:11:08;66584.88;;;2.54;100.00
5988;BME280;3021;51.000;6.980;2023-02-10T01:13:35;66582.19;;;2.54;100.00
5988;BME280;3021;51.000;6.980;2023-02-10T01:16:07;66576.84;;;2.47;100.00
5988;BME280;3021;51.000;6.980;2023-02-10T01:18:37;66576.28;;;2.46;100.00
5988;BME280;3021;51.000;6.980;2023-02-10T01:21:11;66577.41;;;2.47;100.00
5988;BME280;3021;51.000;6.980;2023-02-10T01:23:36;66595.06;;;2.61;100.00
5988;BME280;3021;51.000;6.980;2023-02-10T01:26:02;66586.19;;;2.57;100.00
5988;BME280;3021;51.000;6.980;2023-02-10T01:28:28;66590.03;;;2.58;100.00
5988;BME280;3021;51.000;6.980;2023-02-10T01:30:53;66580.06;;;2.54;100.00
5988;BME280;3021;51.000;6.980;2023-02-10T01:33:18;66596.94;;;2.65;100.00
5988;BME280;3021;51.000;6.980;2023-02-10T01:35:44;66598.66;;;2.66;100.00
5988;BME280;3021;51.000;6.980;2023-02-10T01:38:09;66593.50;;;2.62;100.00
5988;BME280;3021;51.000;6.980;2023-02-10T01:40:34;66594.06;;;2.62;100.00
5988;BME280;3021;51.000;6.980;2023-02-10T01:43:00;66589.06;;;2.60;100.00
5988;BME280;3021;51.000;6.980;2023-02-10T01:45:29;66587.91;;;2.59;100.00
5988;BME280;3021;51.000;6.980;2023-02-10T01:47:56;66582.75;;;2.54;100.00
5988;BME280;3021;51.000;6.980;2023-02-10T01:50:24;66590.03;;;2.58;100.00
5988;BME280;3021;51.000;6.980;2023-02-10T01:52:52;66587.91;;;2.59;100.00
5988;BME280;3021;51.000;6.980;2023-02-10T01:55:22;66596.78;;;2.62;100.00
5988;BME280;3021;51.000;6.980;2023-02-10T01:57:50;66588.66;;;2.62;100.00
5988;BME280;3021;51.000;6.980;2023-02-10T02:00:19;66587.91;;;2.59;100.00
5988;BME280;3021;51.000;6.980;2023-02-10T02:02:46;66574.56;;;2.45;100.00
5988;BME280;3021;51.000;6.980;2023-02-10T02:05:27;66577.75;;;2.52;100.00
5988;BME280;3021;51.000;6.980;2023-02-10T02:07:54;66584.47;;;2.56;100.00
5988;BME280;3021;51.000;6.980;2023-02-10T02:10:23;66590.03;;;2.58;100.00
5988;BME280;3021;51.000;6.980;2023-02-10T02:13:04;66588.09;;;2.62;100.00
5988;BME280;3021;51.000;6.980;2023-02-10T02:18:08;66596.34;;;2.64;100.00
5988;BME280;3021;51.000;6.980;2023-02-10T02:34:48;66580.44;;;2.52;100.00
5988;BME280;3021;51.000;6.980;2023-02-10T02:37:22;66584.88;;;2.54;100.00
5988;BME280;3021;51.000;6.980;2023-02-10T02:39:51;66591.75;;;2.60;100.00
5988;BME280;3021;51.000;6.980;2023-02-10T02:42:22;66602.53;;;2.67;100.00
5988;BME280;3021;51.000;6.980;2023-02-10T02:45:00;66592.91;;;2.61;100.00
5988;BME280;3021;51.000;6.980;2023-02-10T02:50:23;66591.34;;;2.62;100.00
5988;BME280;3021;51.000;6.980;2023-02-10T02:55:37;66587.34;;;2.58;100.00
5988;BME280;3021;51.000;6.980;2023-02-10T02:58:30;66590.22;;;2.61;100.00
5988;BME280;3021;51.000;6.980;2023-02-10T03:01:00;66577.19;;;2.52;100.00
5988;BME280;3021;51.000;6.980;2023-02-10T03:03:32;66575.69;;;2.46;100.00
5988;BME280;3021;51.000;6.980;2023-02-10T03:05:59;66580.88;;;2.50;100.00
5988;BME280;3021;51.000;6.980;2023-02-10T03:08:24;66581.03;;;2.53;100.00
5988;BME280;3021;51.000;6.980;2023-02-10T03:10:50;66585.22;;;2.59;100.00
5988;BME280;3021;51.000;6.980;2023-02-10T03:13:15;66591.19;;;2.59;100.00
5988;BME280;3021;51.000;6.980;2023-02-10T03:15:41;66582.75;;;2.54;100.00
5988;BME280;3021;51.000;6.980;2023-02-10T03:18:07;66578.16;;;2.50;100.00
5988;BME280;3021;51.000;6.980;2023-02-10T03:20:32;66587.19;;;2.56;100.00
5988;BME280;3021;51.000;6.980;2023-02-10T03:22:57;66588.09;;;2.62;100.00
5988;BME280;3021;51.000;6.980;2023-02-10T03:25:23;66584.47;;;2.56;100.00
5988;BME280;3021;51.000;6.980;2023-02-10T03:27:48;66580.44;;;2.52;100.00
5988;BME280;3021;51.000;6.980;2023-02-10T03:30:13;66573.56;;;2.46;100.00
5988;BME280;3021;51.000;6.980;2023-02-10T03:32:39;66564.97;;;2.38;100.00
5988;BME280;3021;51.000;6.980;2023-02-10T03:35:05;66562.09;;;2.36;100.00
5988;BME280;3021;51.000;6.980;2023-02-10T03:37:30;66561.94;;;2.33;100.00
5988;BME280;3021;51.000;6.980;2023-02-10T03:39:55;66566.53;;;2.37;100.00
5988;BME280;3021;51.000;6.980;2023-02-10T03:42:21;66560.94;;;2.35;100.00
5988;BME280;3021;51.000;6.980;2023-02-10T03:44:46;66568.66;;;2.37;100.00
5988;BME280;3021;51.000;6.980;2023-02-10T03:47:11;66555.22;;;2.30;100.00
5988;BME280;3021;51.000;6.980;2023-02-10T03:49:37;66546.59;;;2.22;100.00
5988;BME280;3021;51.000;6.980;2023-02-10T03:52:02;66532.28;;;2.09;100.00
5988;BME280;3021;51.000;6.980;2023-02-10T03:54:27;66536.69;;;2.11;100.00
5988;BME280;3021;51.000;6.980;2023-02-10T03:56:53;66515.06;;;1.94;100.00
5988;BME280;3021;51.000;6.980;2023-02-10T03:59:18;66516.06;;;1.92;100.00
5988;BME280;3021;51.000;6.980;2023-02-10T04:01:43;66517.19;;;1.93;100.00
5988;BME280;3021;51.000;6.980;2023-02-10T04:04:09;66506.31;;;1.83;100.00
5988;BME280;3021;51.000;6.980;2023-02-10T04:06:34;66506.47;;;1.86;100.00
5988;BME280;3021;51.000;6.980;2023-02-10T04:08:59;66509.75;;;1.86;100.00
5988;BME280;3021;51.000;6.980;2023-02-10T04:11:25;66508.59;;;1.85;100.00
5988;BME280;3021;51.000;6.980;2023-02-10T04:13:50;66499.25;;;1.75;100.00
5988;BME280;3021;51.000;6.980;2023-02-10T04:16:16;66495.81;;;1.71;100.00
5988;BME280;3021;51.000;6.980;2023-02-10T04:18:42;66484.69;;;1.66;100.00
5988;BME280;3021;51.000;6.980;2023-02-10T04:21:09;66465.03;;;1.46;100.00
5988;BME280;3021;51.000;6.980;2023-02-10T04:23:35;66455.84;;;1.38;100.00
5988;BME280;3021;51.000;6.980;2023-02-10T04:26:01;66437.09;;;1.24;100.00
5988;BME280;3021;51.000;6.980;2023-02-10T04:28:26;66436.94;;;1.21;100.00
5988;BME280;3021;51.000;6.980;2023-02-10T04:30:53;66419.16;;;1.05;100.00
5988;BME280;3021;51.000;6.980;2023-02-10T04:33:19;66401.97;;;0.90;100.00
5988;BME280;3021;51.000;6.980;2023-02-10T04:35:47;66392.25;;;0.81;100.00
5988;BME280;3021;51.000;6.980;2023-02-10T04:38:13;66385.78;;;0.73;100.00
5988;BME280;3021;51.000;6.980;2023-02-10T04:40:38;66373.91;;;0.64;100.00
5988;BME280;3021;51.000;6.980;2023-02-10T04:43:04;66368.19;;;0.59;100.00
5988;BME280;3021;51.000;6.980;2023-02-10T04:45:30;66356.31;;;0.51;100.00
5988;BME280;3021;51.000;6.980;2023-02-10T04:47:55;66359.81;;;0.47;100.00
5988;BME280;3021;51.000;6.980;2023-02-10T04:50:20;66352.72;;;0.45;100.00
5988;BME280;3021;51.000;6.980;2023-02-10T04:52:46;66345.69;;;0.37;100.00
5988;BME280;3021;51.000;6.980;2023-02-10T04:55:11;66344.53;;;0.36;100.00
5988;BME280;3021;51.000;6.980;2023-02-10T04:57:36;66342.41;;;0.36;100.00
5988;BME280;3021;51.000;6.980;2023-02-10T05:00:03;66332.69;;;0.27;100.00
5988;BME280;3021;51.000;6.980;2023-02-10T05:02:28;66333.88;;;0.21;100.00
5988;BME280;3021;51.000;6.980;2023-02-10T05:04:54;66319.50;;;0.15;100.00
5988;BME280;3021;51.000;6.980;2023-02-10T05:07:19;66319.34;;;0.13;100.00
5988;BME280;3021;51.000;6.980;2023-02-10T05:09:45;66313.19;;;0.10;100.00
5988;BME280;3021;51.000;6.980;2023-02-10T05:12:10;66310.91;;;0.08;100.00
5988;BME280;3021;51.000;6.980;2023-02-10T05:14:35;66305.19;;;0.03;100.00
5988;BME280;3021;51.000;6.980;2023-02-10T05:17:01;66300.59;;;-0.02;100.00
5988;BME280;3021;51.000;6.980;2023-02-10T05:19:26;66299.31;;;-0.05;100.00
5988;BME280;3021;51.000;6.980;2023-02-10T05:21:51;66298.75;;;-0.06;100.00
5988;BME280;3021;51.000;6.980;2023-02-10T05:24:17;66293.75;;;-0.08;100.00
5988;BME280;3021;51.000;6.980;2023-02-10T05:26:42;66290.16;;;-0.13;100.00
5988;BME280;3021;51.000;6.980;2023-02-10T05:29:07;66287.88;;;-0.15;100.00
5988;BME280;3021;51.000;6.980;2023-02-10T05:31:33;66281.16;;;-0.19;100.00
5988;BME280;3021;51.000;6.980;2023-02-10T05:33:58;66276.41;;;-0.26;100.00
5988;BME280;3021;51.000;6.980;2023-02-10T05:36:23;66277.38;;;-0.27;100.00
5988;BME280;3021;51.000;6.980;2023-02-10T05:38:49;66272.97;;;-0.29;100.00
5988;BME280;3021;51.000;6.980;2023-02-10T05:41:33;66266.84;;;-0.32;100.00
5988;BME280;3021;51.000;6.980;2023-02-10T05:43:58;66268.97;;;-0.32;100.00
5988;BME280;3021;51.000;6.980;2023-02-10T05:46:23;66265.38;;;-0.38;100.00
5988;BME280;3021;51.000;6.980;2023-02-10T05:48:49;66256.56;;;-0.41;100.00
5988;BME280;3021;51.000;6.980;2023-02-10T05:51:14;66258.66;;;-0.42;100.00
5988;BME280;3021;51.000;6.980;2023-02-10T05:53:40;66257.38;;;-0.45;100.00
5988;BME280;3021;51.000;6.980;2023-02-10T05:56:05;66255.66;;;-0.47;100.00
5988;BME280;3021;51.000;6.980;2023-02-10T05:58:31;66256.22;;;-0.46;100.00
5988;BME280;3021;51.000;6.980;2023-02-10T06:01:00;66254.84;;;-0.43;100.00
5988;BME280;3021;51.000;6.980;2023-02-10T06:03:25;66249.84;;;-0.45;100.00
5988;BME280;3021;51.000;6.980;2023-02-10T06:05:51;66255.81;;;-0.44;100.00
5988;BME280;3021;51.000;6.980;2023-02-10T06:08:16;66246.25;;;-0.50;100.00
5988;BME280;3021;51.000;6.980;2023-02-10T06:10:42;66251.38;;;-0.46;100.00
5988;BME280;3021;51.000;6.980;2023-02-10T06:13:07;66253.69;;;-0.44;100.00
5988;BME280;3021;51.000;6.980;2023-02-10T06:15:32;66253.88;;;-0.41;100.00
5988;BME280;3021;51.000;6.980;2023-02-10T06:17:58;66251.38;;;-0.46;100.00
5988;BME280;3021;51.000;6.980;2023-02-10T06:20:23;66248.53;;;-0.48;100.00
5988;BME280;3021;51.000;6.980;2023-02-10T06:22:48;66248.94;;;-0.50;100.00
5988;BME280;3021;51.000;6.980;2023-02-10T06:25:14;66242.25;;;-0.54;100.00
5988;BME280;3021;51.000;6.980;2023-02-10T06:27:39;66247.22;;;-0.52;100.00
5988;BME280;3021;51.000;6.980;2023-02-10T06:30:05;66249.34;;;-0.53;100.00
5988;BME280;3021;51.000;6.980;2023-02-10T06:32:30;66242.81;;;-0.54;100.00
5988;BME280;3021;51.000;6.980;2023-02-10T06:34:56;66240.94;;;-0.58;100.00
5988;BME280;3021;51.000;6.980;2023-02-10T06:37:21;66240.38;;;-0.58;100.00
5988;BME280;3021;51.000;6.980;2023-02-10T06:39:46;66236.34;;;-0.62;100.00
5988;BME280;3021;51.000;6.980;2023-02-10T06:42:11;66230.97;;;-0.62;100.00
5988;BME280;3021;51.000;6.980;2023-02-10T06:44:37;66239.38;;;-0.57;100.00
5988;BME280;3021;51.000;6.980;2023-02-10T06:47:02;66240.69;;;-0.53;100.00
5988;BME280;3021;51.000;6.980;2023-02-10T06:49:27;66251.06;;;-0.51;100.00
5988;BME280;3021;51.000;6.980;2023-02-10T06:51:53;66249.09;;;-0.48;100.00
5988;BME280;3021;51.000;6.980;2023-02-10T06:54:20;66254.66;;;-0.45;100.00
5988;BME280;3021;51.000;6.980;2023-02-10T06:56:45;66258.28;;;-0.40;100.00
5988;BME280;3021;51.000;6.980;2023-02-10T06:59:11;66258.84;;;-0.39;100.00
5988;BME280;3021;51.000;6.980;2023-02-10T07:01:37;66271.09;;;-0.33;100.00
5988;BME280;3021;51.000;6.980;2023-02-10T07:04:02;66285.38;;;-0.20;100.00
5988;BME280;3021;51.000;6.980;2023-02-10T07:06:28;66298.75;;;-0.06;100.00
5988;BME280;3021;51.000;6.980;2023-02-10T07:08:53;66306.75;;;0.02;100.00
5988;BME280;3021;51.000;6.980;2023-02-10T07:11:18;66304.06;;;0.02;100.00
5988;BME280;3021;51.000;6.980;2023-02-10T07:13:43;66303.47;;;0.01;100.00
5988;BME280;3021;51.000;6.980;2023-02-10T07:16:09;66300.59;;;-0.02;100.00
5988;BME280;3021;51.000;6.980;2023-02-10T07:18:39;66305.78;;;0.03;100.00
5988;BME280;3021;51.000;6.980;2023-02-10T07:21:05;66319.50;;;0.15;100.00
5988;BME280;3021;51.000;6.980;2023-02-10T07:23:30;66343.72;;;0.40;100.00
5988;BME280;3021;51.000;6.980;2023-02-10T07:25:55;66368.75;;;0.60;100.00
5988;BME280;3021;51.000;6.980;2023-02-10T07:28:21;66389.78;;;0.76;100.00
5988;BME280;3021;51.000;6.980;2023-02-10T07:30:46;66400.09;;;0.85;100.00
5988;BME280;3021;51.000;6.980;2023-02-10T07:33:11;66407.53;;;0.92;100.00
5988;BME280;3021;51.000;6.980;2023-02-10T07:35:37;66401.59;;;0.92;100.00
5988;BME280;3021;51.000;6.980;2023-02-10T07:38:02;66399.09;;;0.87;100.00
5988;BME280;3021;51.000;6.980;2023-02-10T07:40:27;66406.56;;;0.94;100.00
5988;BME280;3021;51.000;6.980;2023-02-10T07:42:55;66409.44;;;0.96;100.00
5988;BME280;3021;51.000;6.980;2023-02-10T07:45:20;66410.00;;;0.97;100.00
5988;BME280;3021;51.000;6.980;2023-02-10T07:47:45;66417.28;;;1.01;100.00
5988;BME280;3021;51.000;6.980;2023-02-10T07:50:11;66421.31;;;1.05;100.00
5988;BME280;3021;51.000;6.980;2023-02-10T07:52:36;66421.44;;;1.07;100.00
5988;BME280;3021;51.000;6.980;2023-02-10T07:55:02;66434.06;;;1.18;100.00
5988;BME280;3021;51.000;6.980;2023-02-10T07:57:29;66438.66;;;1.23;100.00
5988;BME280;3021;51.000;6.980;2023-02-10T07:59:54;66448.81;;;1.29;100.00
5988;BME280;3021;51.000;6.980;2023-02-10T08:02:20;66462.16;;;1.44;100.00
5988;BME280;3021;51.000;6.980;2023-02-10T08:04:45;66468.47;;;1.49;100.00
5988;BME280;3021;51.000;6.980;2023-02-10T08:07:10;66467.88;;;1.49;100.00
5988;BME280;3021;51.000;6.980;2023-02-10T08:09:37;66476.47;;;1.57;100.00
5988;BME280;3021;51.000;6.980;2023-02-10T08:12:05;66480.66;;;1.63;100.00
5988;BME280;3021;51.000;6.980;2023-02-10T08:14:31;66495.97;;;1.74;100.00
5988;BME280;3021;51.000;6.980;2023-02-10T08:16:56;66508.59;;;1.85;100.00
5988;BME280;3021;51.000;6.980;2023-02-10T08:19:22;66510.31;;;1.87;100.00
5988;BME280;3021;51.000;6.980;2023-02-10T08:21:47;66517.03;;;1.90;100.00
5988;BME280;3021;51.000;6.980;2023-02-10T08:24:13;66517.44;;;1.88;100.00
5988;BME280;3021;51.000;6.980;2023-02-10T08:26:38;66516.78;;;1.95;100.00
5988;BME280;3021;51.000;6.980;2023-02-10T08:29:04;66520.47;;;1.94;100.00
5988;BME280;3021;51.000;6.980;2023-02-10T08:31:30;66520.06;;;1.96;100.00
5988;BME280;3021;51.000;6.980;2023-02-10T08:33:55;66525.22;;;2.00;100.00
5988;BME280;3021;51.000;6.980;2023-02-10T08:36:21;66545.28;;;2.18;100.00
5988;BME280;3021;51.000;6.980;2023-02-10T08:38:48;66563.25;;;2.37;100.00
5988;BME280;3021;51.000;6.980;2023-02-10T08:41:14;66584.47;;;2.56;100.00
5988;BME280;3021;51.000;6.980;2023-02-10T08:43:40;66611.28;;;2.78;100.00
5988;BME280;3021;51.000;6.980;2023-02-10T08:46:06;66636.94;;;2.98;100.00
5988;BME280;3021;51.000;6.980;2023-02-10T08:48:32;66642.28;;;3.05;100.00
5988;BME280;3021;51.000;6.980;2023-02-10T08:50:58;66650.47;;;3.15;100.00
5988;BME280;3021;51.000;6.980;2023-02-10T08:53:23;66670.41;;;3.31;100.00
5988;BME280;3021;51.000;6.980;2023-02-10T08:55:59;66682.63;;;3.44;100.00
5988;BME280;3021;51.000;6.980;2023-02-10T08:58:25;66685.66;;;3.49;100.00
5988;BME280;3021;51.000;6.980;2023-02-10T09:00:50;66687.94;;;3.51;100.00
5988;BME280;3021;51.000;6.980;2023-02-10T09:03:16;66698.31;;;3.60;100.00
5988;BME280;3021;51.000;6.980;2023-02-10T09:05:41;66705.44;;;3.62;100.00
5988;BME280;3021;51.000;6.980;2023-02-10T09:08:08;66719.22;;;3.74;100.00
5988;BME280;3021;51.000;6.980;2023-02-10T09:10:34;66737.63;;;3.91;100.00
5988;BME280;3021;51.000;6.980;2023-02-10T09:12:59;66742.38;;;3.97;100.00
5988;BME280;3021;51.000;6.980;2023-02-10T09:15:24;66774.53;;;4.26;100.00
5988;BME280;3021;51.000;6.980;2023-02-10T09:17:50;66794.50;;;4.42;100.00
5988;BME280;3021;51.000;6.980;2023-02-10T09:20:15;66800.84;;;4.47;100.00
5988;BME280;3021;51.000;6.980;2023-02-10T09:22:40;66805.16;;;4.56;100.00
5988;BME280;3021;51.000;6.980;2023-02-10T09:25:06;66806.16;;;4.55;100.00
5988;BME280;3021;51.000;6.980;2023-02-10T09:27:31;66811.50;;;4.62;100.00
5988;BME280;3021;51.000;6.980;2023-02-10T09:29:57;66822.25;;;4.69;100.00
5988;BME280;3021;51.000;6.980;2023-02-10T09:32:22;66823.97;;;4.71;100.00
5988;BME280;3021;51.000;6.980;2023-02-10T09:34:47;66827.44;;;4.74;100.00
5988;BME280;3021;51.000;6.980;2023-02-10T09:37:18;66840.25;;;4.88;100.00
5988;BME280;3021;51.000;6.980;2023-02-10T09:39:43;66849.84;;;4.94;100.00
5988;BME280;3021;51.000;6.980;2023-02-10T09:44:56;66839.50;;;4.84;100.00
5988;BME280;3021;51.000;6.980;2023-02-10T09:47:49;66833.91;;;4.82;100.00
5988;BME280;3021;51.000;6.980;2023-02-10T09:50:32;66868.66;;;5.08;100.00
5988;BME280;3021;51.000;6.980;2023-02-10T09:53:04;66876.44;;;5.20;100.00
5988;BME280;3021;51.000;6.980;2023-02-10T09:55:43;66909.81;;;5.50;100.00
5988;BME280;3021;51.000;6.980;2023-02-10T09:58:21;66937.44;;;5.75;100.00
5988;BME280;3021;51.000;6.980;2023-02-10T10:00:54;67140.91;;;7.59;100.00
5988;BME280;3021;51.000;6.980;2023-02-10T10:03:46;67443.16;;;10.26;100.00
5988;BME280;3021;51.000;6.980;2023-02-10T10:06:23;67623.69;;;11.89;100.00
5988;BME280;3021;51.000;6.980;2023-02-10T10:11:46;68047.41;;;15.68;100.00
5988;BME280;3021;51.000;6.980;2023-02-10T10:14:35;68180.25;;;16.84;100.00
5988;BME280;3021;51.000;6.980;2023-02-10T10:31:16;68443.66;;;19.17;100.00
5988;BME280;3021;51.000;6.980;2023-02-10T10:36:16;68549.72;;;20.13;100.00
5988;BME280;3021;51.000;6.980;2023-02-10T10:38:52;68422.25;;;19.01;100.00
5988;BME280;3021;51.000;6.980;2023-02-10T10:41:22;68471.69;;;19.44;100.00
5988;BME280;3021;51.000;6.980;2023-02-10T10:43:51;68541.00;;;20.06;99.29
5988;BME280;3021;51.000;6.980;2023-02-10T10:49:09;68400.00;;;18.78;99.80
5988;BME280;3021;51.000;6.980;2023-02-10T10:51:35;68400.84;;;18.84;100.00
5988;BME280;3021;51.000;6.980;2023-02-10T10:54:02;68478.25;;;19.52;98.46
5988;BME280;3021;51.000;6.980;2023-02-10T10:56:45;68244.16;;;17.40;100.00
5988;BME280;3021;51.000;6.980;2023-02-10T10:59:38;68358.25;;;18.44;100.00
5988;BME280;3021;51.000;6.980;2023-02-10T11:02:20;67977.50;;;15.01;100.00
5988;BME280;3021;51.000;6.980;2023-02-10T11:04:59;67719.19;;;12.74;100.00
5988;BME280;3021;51.000;6.980;2023-02-10T11:07:25;67572.22;;;11.44;100.00
5988;BME280;3021;51.000;6.980;2023-02-10T11:09:54;67492.28;;;10.70;100.00
5988;BME280;3021;51.000;6.980;2023-02-10T11:12:21;67450.66;;;10.33;100.00
5988;BME280;3021;51.000;6.980;2023-02-10T11:14:49;67424.09;;;10.09;100.00
5988;BME280;3021;51.000;6.980;2023-02-10T11:19:56;67388.84;;;9.78;100.00
5988;BME280;3021;51.000;6.980;2023-02-10T11:22:21;67376.72;;;9.67;100.00
5988;BME280;3021;51.000;6.980;2023-02-10T11:24:58;67346.72;;;9.40;100.00
5988;BME280;3021;51.000;6.980;2023-02-10T11:27:24;67344.97;;;9.39;100.00
5988;BME280;3021;51.000;6.980;2023-02-10T11:29:51;67321.88;;;9.18;100.00
5988;BME280;3021;51.000;6.980;2023-02-10T11:32:25;67297.66;;;8.96;100.00
5988;BME280;3021;51.000;6.980;2023-02-10T11:34:54;67294.75;;;8.94;100.00
5988;BME280;3021;51.000;6.980;2023-02-10T11:39:46;67322.59;;;9.21;100.00
5988;BME280;3021;51.000;6.980;2023-02-10T11:42:20;67325.94;;;9.22;100.00
5988;BME280;3021;51.000;6.980;2023-02-10T11:45:14;67329.97;;;9.25;100.00
5988;BME280;3021;51.000;6.980;2023-02-10T11:47:40;67340.38;;;9.34;100.00
5988;BME280;3021;51.000;6.980;2023-02-10T11:50:22;67342.66;;;9.37;100.00
5988;BME280;3021;51.000;6.980;2023-02-10T11:52:48;67339.19;;;9.33;100.00
5988;BME280;3021;51.000;6.980;2023-02-10T11:55:15;67365.19;;;9.57;100.00
5988;BME280;3021;51.000;6.980;2023-02-10T11:57:50;67395.38;;;9.86;100.00
5988;BME280;3021;51.000;6.980;2023-02-10T12:00:58;67441.41;;;10.25;100.00
5988;BME280;3021;51.000;6.980;2023-02-10T12:03:49;67412.53;;;9.99;100.00
5988;BME280;3021;51.000;6.980;2023-02-10T12:06:35;67408.63;;;9.98;100.00
5988;BME280;3021;51.000;6.980;2023-02-10T12:09:42;67420.03;;;10.06;100.00
5988;BME280;3021;51.000;6.980;2023-02-10T12:26:10;67373.84;;;9.64;100.00
5988;BME280;3021;51.000;6.980;2023-02-10T12:31:38;67374.72;;;9.70;100.00
5988;BME280;3021;51.000;6.980;2023-02-10T12:34:22;67340.22;;;9.32;100.00
5988;BME280;3021;51.000;6.980;2023-02-10T12:53:17;67298.22;;;8.97;100.00
5988;BME280;3021;51.000;6.980;2023-02-10T12:56:01;67303.00;;;9.04;100.00
5988;BME280;3021;51.000;6.980;2023-02-10T12:58:40;67310.34;;;9.08;100.00
5988;BME280;3021;51.000;6.980;2023-02-10T13:03:58;67329.97;;;9.25;100.00
5988;BME280;3021;51.000;6.980;2023-02-10T13:09:24;67351.91;;;9.45;100.00
5988;BME280;3021;51.000;6.980;2023-02-10T13:12:25;67372.97;;;9.68;100.00
5988;BME280;3021;51.000;6.980;2023-02-10T13:17:47;67280.06;;;8.86;100.00
5988;BME280;3021;51.000;6.980;2023-02-10T13:22:55;67276.31;;;8.77;100.00
5988;BME280;3021;51.000;6.980;2023-02-10T13:28:48;67304.00;;;9.02;100.00
5988;BME280;3021;51.000;6.980;2023-02-10T13:48:55;67262.44;;;8.65;100.00
5988;BME280;3021;51.000;6.980;2023-02-10T13:51:35;67263.91;;;8.71;100.00
5988;BME280;3021;51.000;6.980;2023-02-10T13:54:03;67272.69;;;8.72;100.00
5988;BME280;3021;51.000;6.980;2023-02-10T13:56:31;67278.75;;;8.82;100.00
5988;BME280;3021;51.000;6.980;2023-02-10T14:06:47;67309.19;;;9.07;100.00
5988;BME280;3021;51.000;6.980;2023-02-10T14:09:20;67301.25;;;9.02;100.00
5988;BME280;3021;51.000;6.980;2023-02-10T14:11:46;67296.50;;;8.95;100.00
5988;BME280;3021;51.000;6.980;2023-02-10T14:16:50;67298.06;;;8.94;100.00
5988;BME280;3021;51.000;6.980;2023-02-10T14:19:43;67290.13;;;8.90;100.00
5988;BME280;3021;51.000;6.980;2023-02-10T14:22:39;67296.94;;;8.93;100.00
5988;BME280;3021;51.000;6.980;2023-02-10T14:25:26;67293.59;;;8.93;100.00
5988;BME280;3021;51.000;6.980;2023-02-10T14:27:53;67307.47;;;9.05;100.00
5988;BME280;3021;51.000;6.980;2023-02-10T14:30:35;67309.34;;;9.09;100.00
5988;BME280;3021;51.000;6.980;2023-02-10T14:33:02;67305.72;;;9.04;100.00
5988;BME280;3021;51.000;6.980;2023-02-10T14:35:27;67318.84;;;9.13;100.00
5988;BME280;3021;51.000;6.980;2023-02-10T14:37:56;67314.38;;;9.11;100.00
5988;BME280;3021;51.000;6.980;2023-02-10T14:40:24;67304.56;;;9.03;100.00
5988;BME280;3021;51.000;6.980;2023-02-10T14:42:50;67316.09;;;9.13;100.00
5988;BME280;3021;51.000;6.980;2023-02-10T14:45:22;67330.69;;;9.28;100.00
5988;BME280;3021;51.000;6.980;2023-02-10T14:47:48;67320.88;;;9.20;100.00
5988;BME280;3021;51.000;6.980;2023-02-10T14:52:55;67349.00;;;9.42;100.00
5988;BME280;3021;51.000;6.980;2023-02-10T14:55:29;67354.34;;;9.49;100.00
5988;BME280;3021;51.000;6.980;2023-02-10T14:58:13;67350.19;;;9.43;100.00
5988;BME280;3021;51.000;6.980;2023-02-10T15:00:40;67345.56;;;9.39;100.00
5988;BME280;3021;51.000;6.980;2023-02-10T15:03:11;67341.09;;;9.38;100.00
5988;BME280;3021;51.000;6.980;2023-02-10T15:05:43;67321.31;;;9.18;100.00
5988;BME280;3021;51.000;6.980;2023-02-10T15:08:15;67311.63;;;9.11;100.00
5988;BME280;3021;51.000;6.980;2023-02-10T15:10:44;67293.75;;;8.95;100.00
5988;BME280;3021;51.000;6.980;2023-02-10T15:13:14;67266.47;;;8.69;100.00
5988;BME280;3021;51.000;6.980;2023-02-10T15:15:43;67242.97;;;8.50;100.00
5988;BME280;3021;51.000;6.980;2023-02-10T15:18:20;67223.94;;;8.33;100.00
5988;BME280;3021;51.000;6.980;2023-02-10T15:21:00;67206.63;;;8.18;100.00
5988;BME280;3021;51.000;6.980;2023-02-10T15:23:27;67197.84;;;8.07;100.00
5988;BME280;3021;51.000;6.980;2023-02-10T15:26:17;67187.59;;;8.01;100.00
5988;BME280;3021;51.000;6.980;2023-02-10T15:28:43;67169.44;;;7.79;100.00
5988;BME280;3021;51.000;6.980;2023-02-10T15:38:44;67169.00;;;7.82;100.00
5988;BME280;3021;51.000;6.980;2023-02-10T15:43:56;67177.81;;;7.92;100.00
5988;BME280;3021;51.000;6.980;2023-02-10T15:46:23;67195.53;;;8.05;100.00
5988;BME280;3021;51.000;6.980;2023-02-10T15:48:49;67196.09;;;8.06;100.00